SAS790 LIEO-EKCH
Flight info
| Callsign | SAS790 |
|---|---|
| Flight time | 2h 12m |
| Altitude | 38000 |
| Route | OLBEK DCT IBROS DCT NEMIT DCT ELB DCT BETMU DCT BORMI DCT BRENO DCT KONIN DCT EXITI DCT GALMA DCT BKD M726 ROSOK Q296 MONAK |
| Aircraft | B738/M-SDE2E3FGHIRWXY/LB1 |
Departure
| Time | 2026-04-26 14:53 |
|---|---|
| Airport | Olbia Costa Smeralda Airport (LIEO) |
Arrival
| Time | 2026-04-26 17:06 |
|---|---|
| Airport | Copenhagen Kastrup Airport (EKCH) |
| Time | Latitude | Longitude | Altitude | Speed | Heading |
|---|---|---|---|---|---|
| 2026-04-26 14:16 | 40.90223 | 9.51619 | 33 ft | 0 kts | 325° |
| 2026-04-26 14:44 | 40.90210 | 9.51632 | 32 ft | 4 kts | 316° |
| 2026-04-26 14:45 | 40.90195 | 9.51655 | 33 ft | 4 kts | 296° |
| 2026-04-26 14:45 | 40.90189 | 9.51673 | 33 ft | 4 kts | 277° |
| 2026-04-26 14:45 | 40.90193 | 9.51707 | 33 ft | 1 kts | 236° |
| 2026-04-26 14:45 | 40.90194 | 9.51708 | 33 ft | 1 kts | 235° |
| 2026-04-26 14:48 | 40.90194 | 9.51707 | 33 ft | 0 kts | 235° |
| 2026-04-26 14:48 | 40.90183 | 9.51688 | 30 ft | 6 kts | 235° |
| 2026-04-26 14:48 | 40.90154 | 9.51631 | 33 ft | 8 kts | 236° |
| 2026-04-26 14:49 | 40.90123 | 9.51572 | 33 ft | 8 kts | 235° |
| 2026-04-26 14:49 | 40.90093 | 9.51515 | 33 ft | 7 kts | 235° |
| 2026-04-26 14:49 | 40.90053 | 9.51481 | 33 ft | 7 kts | 172° |
| 2026-04-26 14:49 | 40.90007 | 9.51513 | 33 ft | 8 kts | 158° |
| 2026-04-26 14:50 | 40.89943 | 9.51499 | 33 ft | 12 kts | 211° |
| 2026-04-26 14:50 | 40.89880 | 9.51398 | 33 ft | 17 kts | 236° |
| 2026-04-26 14:50 | 40.89807 | 9.51258 | 33 ft | 20 kts | 235° |
| 2026-04-26 14:50 | 40.89727 | 9.51106 | 33 ft | 20 kts | 235° |
| 2026-04-26 14:51 | 40.89649 | 9.50956 | 33 ft | 19 kts | 235° |
| 2026-04-26 14:51 | 40.89573 | 9.50812 | 33 ft | 19 kts | 235° |
| 2026-04-26 14:51 | 40.89500 | 9.50673 | 33 ft | 18 kts | 235° |
| 2026-04-26 14:51 | 40.89429 | 9.50539 | 32 ft | 18 kts | 235° |
| 2026-04-26 14:52 | 40.89358 | 9.50449 | 33 ft | 13 kts | 190° |
| 2026-04-26 14:52 | 40.89284 | 9.50490 | 33 ft | 12 kts | 110° |
| 2026-04-26 14:52 | 40.89265 | 9.50574 | 31 ft | 7 kts | 118° |
| 2026-04-26 14:52 | 40.89276 | 9.50635 | 32 ft | 11 kts | 55° |
| 2026-04-26 14:53 | 40.89445 | 9.50956 | 32 ft | 78 kts | 55° |
| 2026-04-26 14:53 | 40.89877 | 9.51784 | 32 ft | 139 kts | 55° |
| 2026-04-26 14:53 | 40.90481 | 9.52954 | 405 ft | 157 kts | 58° |
| 2026-04-26 14:53 | 40.91108 | 9.54188 | 1059 ft | 167 kts | 57° |
| 2026-04-26 14:54 | 40.91804 | 9.55500 | 1616 ft | 184 kts | 56° |
| 2026-04-26 14:54 | 40.92595 | 9.56962 | 2046 ft | 205 kts | 56° |
| 2026-04-26 14:54 | 40.93434 | 9.58545 | 2492 ft | 216 kts | 56° |
| 2026-04-26 14:54 | 40.94308 | 9.60215 | 2961 ft | 228 kts | 56° |
| 2026-04-26 14:55 | 40.95258 | 9.62002 | 3409 ft | 246 kts | 54° |
| 2026-04-26 14:55 | 40.96261 | 9.63869 | 4151 ft | 248 kts | 54° |
| 2026-04-26 14:55 | 40.97264 | 9.65740 | 4966 ft | 251 kts | 54° |
| 2026-04-26 14:55 | 40.98299 | 9.67618 | 5686 ft | 254 kts | 47° |
| 2026-04-26 14:56 | 40.99727 | 9.68990 | 6182 ft | 267 kts | 25° |
| 2026-04-26 14:56 | 41.01448 | 9.70059 | 6718 ft | 278 kts | 24° |
| 2026-04-26 14:56 | 41.03219 | 9.71138 | 7416 ft | 282 kts | 24° |
| 2026-04-26 14:56 | 41.05008 | 9.72235 | 8157 ft | 284 kts | 24° |
| 2026-04-26 14:57 | 41.06809 | 9.73348 | 8905 ft | 288 kts | 25° |
| 2026-04-26 14:57 | 41.08635 | 9.74486 | 9602 ft | 292 kts | 25° |
| 2026-04-26 14:57 | 41.10478 | 9.75642 | 10333 ft | 295 kts | 25° |
| 2026-04-26 14:57 | 41.12386 | 9.76842 | 10619 ft | 315 kts | 25° |
| 2026-04-26 14:58 | 41.14430 | 9.78132 | 10791 ft | 336 kts | 25° |
| 2026-04-26 14:58 | 41.16606 | 9.79510 | 10952 ft | 357 kts | 25° |
| 2026-04-26 14:58 | 41.18890 | 9.80956 | 11283 ft | 369 kts | 25° |
| 2026-04-26 14:58 | 41.21228 | 9.82435 | 11857 ft | 374 kts | 25° |
| 2026-04-26 14:59 | 41.23582 | 9.83926 | 12539 ft | 376 kts | 25° |
| 2026-04-26 14:59 | 41.25955 | 9.85417 | 13229 ft | 379 kts | 23° |
| 2026-04-26 14:59 | 41.28446 | 9.86600 | 13870 ft | 382 kts | 16° |
| 2026-04-26 14:59 | 41.30150 | 9.87229 | 14268 ft | 385 kts | 14° |
| 2026-04-26 15:00 | 41.33636 | 9.88389 | 15110 ft | 388 kts | 13° |
| 2026-04-26 15:00 | 41.36263 | 9.89252 | 15768 ft | 390 kts | 13° |
| 2026-04-26 15:00 | 41.38905 | 9.90143 | 16411 ft | 393 kts | 14° |
| 2026-04-26 15:00 | 41.41560 | 9.91064 | 17039 ft | 396 kts | 14° |
| 2026-04-26 15:01 | 41.44235 | 9.92011 | 17652 ft | 399 kts | 14° |
| 2026-04-26 15:01 | 41.46924 | 9.92975 | 18248 ft | 402 kts | 15° |
| 2026-04-26 15:01 | 41.49634 | 9.93953 | 18794 ft | 405 kts | 15° |
| 2026-04-26 15:01 | 41.52365 | 9.94943 | 19309 ft | 408 kts | 15° |
| 2026-04-26 15:02 | 41.55113 | 9.95940 | 19829 ft | 411 kts | 15° |
| 2026-04-26 15:02 | 41.57878 | 9.96944 | 20352 ft | 414 kts | 15° |
| 2026-04-26 15:02 | 41.60666 | 9.97957 | 20864 ft | 416 kts | 15° |
| 2026-04-26 15:02 | 41.63469 | 9.98976 | 21347 ft | 419 kts | 15° |
| 2026-04-26 15:03 | 41.66295 | 10.00004 | 21829 ft | 422 kts | 15° |
| 2026-04-26 15:03 | 41.69142 | 10.01040 | 22300 ft | 425 kts | 15° |
| 2026-04-26 15:03 | 41.72012 | 10.02085 | 22764 ft | 428 kts | 15° |
| 2026-04-26 15:03 | 41.74896 | 10.03136 | 23220 ft | 431 kts | 15° |
| 2026-04-26 15:04 | 41.77798 | 10.04195 | 23655 ft | 435 kts | 14° |
| 2026-04-26 15:04 | 41.80729 | 10.05265 | 24009 ft | 438 kts | 15° |
| 2026-04-26 15:04 | 41.83677 | 10.06343 | 24386 ft | 440 kts | 14° |
| 2026-04-26 15:04 | 41.86635 | 10.07427 | 24772 ft | 442 kts | 14° |
| 2026-04-26 15:05 | 41.89607 | 10.08519 | 25141 ft | 445 kts | 14° |
| 2026-04-26 15:05 | 41.91592 | 10.09248 | 25382 ft | 446 kts | 14° |
| 2026-04-26 15:05 | 41.95604 | 10.10723 | 25846 ft | 449 kts | 14° |
| 2026-04-26 15:05 | 41.98636 | 10.11838 | 26190 ft | 452 kts | 14° |
| 2026-04-26 15:06 | 42.01677 | 10.12956 | 26514 ft | 454 kts | 14° |
| 2026-04-26 15:06 | 42.04732 | 10.14081 | 26840 ft | 457 kts | 14° |
| 2026-04-26 15:06 | 42.07804 | 10.15214 | 27170 ft | 459 kts | 14° |
| 2026-04-26 15:06 | 42.10885 | 10.16352 | 27489 ft | 461 kts | 14° |
| 2026-04-26 15:07 | 42.17100 | 10.18649 | 28103 ft | 465 kts | 14° |
| 2026-04-26 15:07 | 42.20226 | 10.19807 | 28401 ft | 467 kts | 14° |
| 2026-04-26 15:07 | 42.23367 | 10.20970 | 28696 ft | 469 kts | 14° |
| 2026-04-26 15:08 | 42.26522 | 10.22140 | 29019 ft | 470 kts | 14° |
| 2026-04-26 15:08 | 42.29671 | 10.23309 | 29458 ft | 469 kts | 14° |
| 2026-04-26 15:08 | 42.32808 | 10.24476 | 29933 ft | 467 kts | 14° |
| 2026-04-26 15:08 | 42.35892 | 10.25624 | 30327 ft | 466 kts | 14° |
| 2026-04-26 15:09 | 42.39015 | 10.26789 | 30635 ft | 466 kts | 14° |
| 2026-04-26 15:09 | 42.42180 | 10.27973 | 30965 ft | 465 kts | 14° |
| 2026-04-26 15:09 | 42.45255 | 10.29124 | 31342 ft | 464 kts | 14° |
| 2026-04-26 15:09 | 42.48352 | 10.30285 | 31710 ft | 462 kts | 14° |
| 2026-04-26 15:10 | 42.51453 | 10.31448 | 32049 ft | 461 kts | 14° |
| 2026-04-26 15:10 | 42.53541 | 10.32231 | 32267 ft | 461 kts | 14° |
| 2026-04-26 15:10 | 42.57629 | 10.33765 | 32733 ft | 459 kts | 13° |
| 2026-04-26 15:10 | 42.60699 | 10.34918 | 33131 ft | 457 kts | 13° |
| 2026-04-26 15:11 | 42.63763 | 10.36070 | 33488 ft | 456 kts | 13° |
| 2026-04-26 15:11 | 42.66814 | 10.37217 | 33795 ft | 455 kts | 13° |
| 2026-04-26 15:11 | 42.69869 | 10.38368 | 34100 ft | 455 kts | 13° |
| 2026-04-26 15:11 | 42.72910 | 10.39508 | 34387 ft | 454 kts | 12° |
| 2026-04-26 15:12 | 42.75994 | 10.40413 | 34638 ft | 452 kts | 8° |
| 2026-04-26 15:12 | 42.79091 | 10.41128 | 34900 ft | 451 kts | 7° |
| 2026-04-26 15:12 | 42.82194 | 10.41773 | 35155 ft | 450 kts | 6° |
| 2026-04-26 15:12 | 42.85293 | 10.42400 | 35368 ft | 451 kts | 6° |
| 2026-04-26 15:13 | 42.88394 | 10.43037 | 35572 ft | 451 kts | 6° |
| 2026-04-26 15:13 | 42.91504 | 10.43691 | 35810 ft | 451 kts | 7° |
| 2026-04-26 15:13 | 42.94645 | 10.44367 | 36043 ft | 451 kts | 7° |
| 2026-04-26 15:13 | 42.97702 | 10.45037 | 36257 ft | 451 kts | 7° |
| 2026-04-26 15:14 | 43.00799 | 10.45722 | 36489 ft | 451 kts | 7° |
| 2026-04-26 15:14 | 43.03897 | 10.46412 | 36693 ft | 451 kts | 7° |
| 2026-04-26 15:14 | 43.06993 | 10.47103 | 36881 ft | 451 kts | 7° |
| 2026-04-26 15:14 | 43.10089 | 10.47794 | 37090 ft | 451 kts | 7° |
| 2026-04-26 15:15 | 43.13189 | 10.48487 | 37299 ft | 451 kts | 7° |
| 2026-04-26 15:15 | 43.16284 | 10.49180 | 37507 ft | 451 kts | 7° |
| 2026-04-26 15:15 | 43.19373 | 10.49871 | 37729 ft | 450 kts | 7° |
| 2026-04-26 15:15 | 43.22463 | 10.50563 | 37929 ft | 450 kts | 7° |
| 2026-04-26 15:16 | 43.25557 | 10.51257 | 38084 ft | 451 kts | 7° |
| 2026-04-26 15:16 | 43.28654 | 10.51951 | 38142 ft | 453 kts | 7° |
| 2026-04-26 15:16 | 43.33293 | 10.52992 | 38154 ft | 457 kts | 7° |
| 2026-04-26 15:18 | 43.33657 | 10.53074 | 38156 ft | 457 kts | 7° |
| 2026-04-26 15:19 | 43.39965 | 10.54493 | 38159 ft | 461 kts | 7° |
| 2026-04-26 15:19 | 43.46306 | 10.55923 | 38143 ft | 463 kts | 7° |
| 2026-04-26 15:20 | 43.52663 | 10.57361 | 38136 ft | 463 kts | 7° |
| 2026-04-26 15:20 | 43.59021 | 10.58801 | 38128 ft | 462 kts | 7° |
| 2026-04-26 15:21 | 43.65357 | 10.60240 | 38149 ft | 461 kts | 7° |
| 2026-04-26 15:21 | 43.71671 | 10.61677 | 38148 ft | 459 kts | 7° |
| 2026-04-26 15:22 | 43.77964 | 10.63112 | 38152 ft | 458 kts | 7° |
| 2026-04-26 15:22 | 43.84242 | 10.64546 | 38151 ft | 457 kts | 7° |
| 2026-04-26 15:23 | 43.90508 | 10.65980 | 38151 ft | 456 kts | 7° |
| 2026-04-26 15:23 | 43.96762 | 10.67415 | 38165 ft | 455 kts | 7° |
| 2026-04-26 15:24 | 44.01950 | 10.68607 | 38161 ft | 455 kts | 7° |
| 2026-04-26 15:24 | 44.08200 | 10.70047 | 38159 ft | 455 kts | 7° |
| 2026-04-26 15:25 | 44.14440 | 10.71487 | 38176 ft | 454 kts | 7° |
| 2026-04-26 15:25 | 44.20670 | 10.72928 | 38162 ft | 453 kts | 7° |
| 2026-04-26 15:26 | 44.26886 | 10.74370 | 38158 ft | 453 kts | 7° |
| 2026-04-26 15:26 | 44.33109 | 10.75815 | 38149 ft | 453 kts | 7° |
| 2026-04-26 15:27 | 44.39341 | 10.77265 | 38143 ft | 453 kts | 7° |
| 2026-04-26 15:27 | 44.45555 | 10.78716 | 38155 ft | 453 kts | 7° |
| 2026-04-26 15:28 | 44.47374 | 10.79140 | 38162 ft | 453 kts | 7° |
| 2026-04-26 15:28 | 44.51106 | 10.79998 | 38149 ft | 453 kts | 7° |
| 2026-04-26 15:29 | 44.57329 | 10.81447 | 38133 ft | 454 kts | 7° |
| 2026-04-26 15:30 | 44.69776 | 10.84377 | 38143 ft | 453 kts | 7° |
| 2026-04-26 15:30 | 44.76004 | 10.85846 | 38127 ft | 454 kts | 7° |
| 2026-04-26 15:31 | 44.85344 | 10.88055 | 38114 ft | 454 kts | 7° |
| 2026-04-26 15:32 | 44.93633 | 10.90021 | 38112 ft | 454 kts | 7° |
| 2026-04-26 15:32 | 45.00913 | 10.91752 | 38086 ft | 454 kts | 7° |
| 2026-04-26 15:33 | 45.07143 | 10.93237 | 38095 ft | 454 kts | 7° |
| 2026-04-26 15:33 | 45.13375 | 10.94726 | 38075 ft | 454 kts | 7° |
| 2026-04-26 15:34 | 45.19606 | 10.96219 | 38077 ft | 454 kts | 7° |
| 2026-04-26 15:34 | 45.25839 | 10.97715 | 38088 ft | 454 kts | 7° |
| 2026-04-26 15:35 | 45.32029 | 10.99203 | 38076 ft | 454 kts | 7° |
| 2026-04-26 15:35 | 45.38299 | 11.00715 | 38076 ft | 454 kts | 7° |
| 2026-04-26 15:36 | 45.44526 | 11.02219 | 38084 ft | 454 kts | 7° |
| 2026-04-26 15:36 | 45.50755 | 11.03728 | 38081 ft | 454 kts | 7° |
| 2026-04-26 15:37 | 45.56946 | 11.05230 | 38091 ft | 454 kts | 7° |
| 2026-04-26 15:37 | 45.63181 | 11.06747 | 38118 ft | 455 kts | 7° |
| 2026-04-26 15:38 | 45.69422 | 11.08268 | 38113 ft | 454 kts | 7° |
| 2026-04-26 15:38 | 45.75653 | 11.09790 | 38138 ft | 454 kts | 7° |
| 2026-04-26 15:39 | 45.81931 | 11.11328 | 38145 ft | 454 kts | 7° |
| 2026-04-26 15:39 | 45.87108 | 11.12599 | 38160 ft | 455 kts | 7° |
| 2026-04-26 15:40 | 45.94358 | 11.14383 | 38156 ft | 454 kts | 7° |
| 2026-04-26 15:40 | 46.00596 | 11.15921 | 38182 ft | 455 kts | 7° |
| 2026-04-26 15:41 | 46.06836 | 11.17422 | 38192 ft | 455 kts | 6° |
| 2026-04-26 15:41 | 46.13092 | 11.18783 | 38211 ft | 454 kts | 5° |
| 2026-04-26 15:42 | 46.19343 | 11.20126 | 38223 ft | 454 kts | 5° |
| 2026-04-26 15:42 | 46.25082 | 11.21378 | 38234 ft | 453 kts | 6° |
| 2026-04-26 15:44 | 46.33341 | 11.23199 | 38237 ft | 452 kts | 5° |
| 2026-04-26 15:44 | 46.42645 | 11.25262 | 38011 ft | 450 kts | 6° |
| 2026-04-26 15:45 | 46.51929 | 11.27322 | 37996 ft | 451 kts | 6° |
| 2026-04-26 15:46 | 46.61248 | 11.29400 | 38020 ft | 452 kts | 6° |
| 2026-04-26 15:46 | 46.66460 | 11.30566 | 38045 ft | 453 kts | 6° |
| 2026-04-26 15:47 | 46.76828 | 11.32890 | 38099 ft | 454 kts | 6° |
| 2026-04-26 15:48 | 46.83068 | 11.34294 | 38140 ft | 454 kts | 6° |
| 2026-04-26 15:48 | 46.89317 | 11.35703 | 38119 ft | 455 kts | 6° |
| 2026-04-26 15:49 | 46.95569 | 11.37144 | 38107 ft | 455 kts | 7° |
| 2026-04-26 15:49 | 47.01829 | 11.37788 | 38138 ft | 450 kts | 356° |
| 2026-04-26 15:50 | 47.08087 | 11.37633 | 38115 ft | 451 kts | 356° |
| 2026-04-26 15:50 | 47.14355 | 11.37515 | 38140 ft | 451 kts | 356° |
| 2026-04-26 15:51 | 47.20634 | 11.37442 | 38129 ft | 451 kts | 356° |
| 2026-04-26 15:51 | 47.26916 | 11.37383 | 38134 ft | 451 kts | 356° |
| 2026-04-26 15:52 | 47.33197 | 11.37324 | 38138 ft | 451 kts | 356° |
| 2026-04-26 15:52 | 47.39474 | 11.37263 | 38133 ft | 451 kts | 356° |
| 2026-04-26 15:53 | 47.45747 | 11.37201 | 38131 ft | 451 kts | 356° |
| 2026-04-26 15:53 | 47.52004 | 11.37141 | 38143 ft | 449 kts | 356° |
| 2026-04-26 15:54 | 47.58241 | 11.37079 | 38156 ft | 448 kts | 356° |
| 2026-04-26 15:54 | 47.64476 | 11.37016 | 38166 ft | 448 kts | 356° |
| 2026-04-26 15:55 | 47.70713 | 11.36954 | 38172 ft | 448 kts | 356° |
| 2026-04-26 15:55 | 47.76941 | 11.36892 | 38171 ft | 448 kts | 356° |
| 2026-04-26 15:56 | 47.83169 | 11.36830 | 38195 ft | 447 kts | 356° |
| 2026-04-26 15:56 | 47.89399 | 11.36829 | 38217 ft | 448 kts | 357° |
| 2026-04-26 15:57 | 47.95635 | 11.36983 | 38203 ft | 448 kts | 358° |
| 2026-04-26 15:57 | 48.01871 | 11.37154 | 38216 ft | 448 kts | 358° |
| 2026-04-26 15:58 | 48.08058 | 11.37306 | 38211 ft | 448 kts | 358° |
| 2026-04-26 15:58 | 48.14285 | 11.37448 | 38212 ft | 448 kts | 357° |
| 2026-04-26 15:59 | 48.20514 | 11.37587 | 38210 ft | 447 kts | 357° |
| 2026-04-26 15:59 | 48.26742 | 11.37727 | 38209 ft | 447 kts | 357° |
| 2026-04-26 16:00 | 48.32965 | 11.37867 | 38210 ft | 447 kts | 357° |
| 2026-04-26 16:00 | 48.39180 | 11.38007 | 38204 ft | 447 kts | 357° |
| 2026-04-26 16:01 | 48.45397 | 11.38148 | 38208 ft | 447 kts | 357° |
| 2026-04-26 16:01 | 48.51619 | 11.38290 | 38219 ft | 447 kts | 357° |
| 2026-04-26 16:02 | 48.57846 | 11.38432 | 38217 ft | 447 kts | 357° |
| 2026-04-26 16:02 | 48.64069 | 11.38574 | 38209 ft | 448 kts | 357° |
| 2026-04-26 16:03 | 48.70299 | 11.38716 | 38211 ft | 447 kts | 357° |
| 2026-04-26 16:03 | 48.76518 | 11.38859 | 38225 ft | 447 kts | 357° |
| 2026-04-26 16:04 | 48.82742 | 11.39002 | 38210 ft | 447 kts | 358° |
| 2026-04-26 16:04 | 48.88959 | 11.39146 | 38214 ft | 447 kts | 358° |
| 2026-04-26 16:05 | 48.95175 | 11.39290 | 38208 ft | 446 kts | 358° |
| 2026-04-26 16:05 | 49.01378 | 11.39434 | 38215 ft | 446 kts | 357° |
| 2026-04-26 16:06 | 49.07592 | 11.39578 | 38221 ft | 446 kts | 357° |
| 2026-04-26 16:06 | 49.13800 | 11.39723 | 38217 ft | 446 kts | 358° |
| 2026-04-26 16:07 | 49.20004 | 11.39868 | 38241 ft | 446 kts | 357° |
| 2026-04-26 16:07 | 49.26208 | 11.40013 | 38224 ft | 446 kts | 357° |
| 2026-04-26 16:08 | 49.32417 | 11.40159 | 38231 ft | 446 kts | 357° |
| 2026-04-26 16:08 | 49.37569 | 11.40280 | 38225 ft | 446 kts | 357° |
| 2026-04-26 16:09 | 49.43778 | 11.40427 | 38240 ft | 446 kts | 357° |
| 2026-04-26 16:09 | 49.49990 | 11.40573 | 38238 ft | 447 kts | 357° |
| 2026-04-26 16:10 | 49.56206 | 11.40721 | 38230 ft | 447 kts | 357° |
| 2026-04-26 16:10 | 49.62419 | 11.40866 | 38233 ft | 447 kts | 357° |
| 2026-04-26 16:11 | 49.68634 | 11.41008 | 38242 ft | 447 kts | 357° |
| 2026-04-26 16:11 | 49.74854 | 11.41152 | 38234 ft | 447 kts | 357° |
| 2026-04-26 16:12 | 49.81068 | 11.41296 | 38247 ft | 447 kts | 357° |
| 2026-04-26 16:12 | 49.90389 | 11.41513 | 38256 ft | 446 kts | 357° |
| 2026-04-26 16:13 | 49.96598 | 11.41658 | 38253 ft | 446 kts | 357° |
| 2026-04-26 16:13 | 50.02795 | 11.41804 | 38247 ft | 445 kts | 357° |
| 2026-04-26 16:14 | 50.08991 | 11.41949 | 38280 ft | 445 kts | 357° |
| 2026-04-26 16:15 | 50.18276 | 11.42168 | 38264 ft | 445 kts | 357° |
| 2026-04-26 16:15 | 50.24467 | 11.42314 | 38266 ft | 445 kts | 357° |
| 2026-04-26 16:16 | 50.33744 | 11.42534 | 38281 ft | 445 kts | 357° |
| 2026-04-26 16:16 | 50.39895 | 11.42680 | 38263 ft | 445 kts | 357° |
| 2026-04-26 16:17 | 50.46079 | 11.42828 | 38274 ft | 444 kts | 357° |
| 2026-04-26 16:17 | 50.52261 | 11.42976 | 38277 ft | 444 kts | 357° |
| 2026-04-26 16:18 | 50.61520 | 11.43198 | 38279 ft | 444 kts | 357° |
| 2026-04-26 16:19 | 50.70777 | 11.43421 | 38282 ft | 444 kts | 357° |
| 2026-04-26 16:20 | 50.80044 | 11.43645 | 38277 ft | 444 kts | 357° |
| 2026-04-26 16:20 | 50.89319 | 11.43869 | 38291 ft | 445 kts | 357° |
| 2026-04-26 16:21 | 50.95519 | 11.44020 | 38291 ft | 446 kts | 357° |
| 2026-04-26 16:21 | 51.01718 | 11.44172 | 38304 ft | 446 kts | 357° |
| 2026-04-26 16:22 | 51.07932 | 11.44324 | 38293 ft | 447 kts | 357° |
| 2026-04-26 16:22 | 51.14152 | 11.44477 | 38287 ft | 447 kts | 357° |
| 2026-04-26 16:23 | 51.20370 | 11.44630 | 38288 ft | 447 kts | 357° |
| 2026-04-26 16:23 | 51.26586 | 11.44784 | 38306 ft | 447 kts | 357° |
| 2026-04-26 16:24 | 51.32804 | 11.44937 | 38293 ft | 447 kts | 357° |
| 2026-04-26 16:24 | 51.39025 | 11.45092 | 38286 ft | 447 kts | 357° |
| 2026-04-26 16:25 | 51.45246 | 11.45354 | 38295 ft | 447 kts | 358° |
| 2026-04-26 16:25 | 51.51462 | 11.45731 | 38299 ft | 447 kts | 358° |
| 2026-04-26 16:26 | 51.56620 | 11.46045 | 38294 ft | 447 kts | 358° |
| 2026-04-26 16:26 | 51.63894 | 11.46469 | 38292 ft | 447 kts | 358° |
| 2026-04-26 16:27 | 51.70108 | 11.46822 | 38294 ft | 447 kts | 358° |
| 2026-04-26 16:27 | 51.76320 | 11.47174 | 38301 ft | 446 kts | 358° |
| 2026-04-26 16:28 | 51.82477 | 11.47525 | 38292 ft | 446 kts | 358° |
| 2026-04-26 16:28 | 51.88682 | 11.47879 | 38296 ft | 445 kts | 358° |
| 2026-04-26 16:29 | 51.94866 | 11.48234 | 38296 ft | 445 kts | 358° |
| 2026-04-26 16:29 | 52.01050 | 11.48590 | 38298 ft | 444 kts | 358° |
| 2026-04-26 16:30 | 52.07228 | 11.48946 | 38286 ft | 444 kts | 358° |
| 2026-04-26 16:30 | 52.13390 | 11.49302 | 38296 ft | 443 kts | 358° |
| 2026-04-26 16:31 | 52.19548 | 11.49659 | 38283 ft | 442 kts | 358° |
| 2026-04-26 16:31 | 52.25701 | 11.50016 | 38286 ft | 442 kts | 358° |
| 2026-04-26 16:32 | 52.30793 | 11.50313 | 38290 ft | 442 kts | 358° |
| 2026-04-26 16:32 | 52.37981 | 11.50733 | 38291 ft | 441 kts | 358° |
| 2026-04-26 16:33 | 52.44112 | 11.51092 | 38291 ft | 440 kts | 358° |
| 2026-04-26 16:33 | 52.50233 | 11.51452 | 38282 ft | 441 kts | 358° |
| 2026-04-26 16:34 | 52.56358 | 11.51813 | 38291 ft | 440 kts | 358° |
| 2026-04-26 16:34 | 52.62484 | 11.52174 | 38289 ft | 441 kts | 358° |
| 2026-04-26 16:35 | 52.68613 | 11.52538 | 38295 ft | 441 kts | 358° |
| 2026-04-26 16:35 | 52.74750 | 11.52902 | 38293 ft | 441 kts | 358° |
| 2026-04-26 16:36 | 52.80885 | 11.53268 | 38287 ft | 441 kts | 358° |
| 2026-04-26 16:36 | 52.87020 | 11.53635 | 38291 ft | 441 kts | 358° |
| 2026-04-26 16:37 | 52.93117 | 11.54000 | 38289 ft | 441 kts | 358° |
| 2026-04-26 16:37 | 52.99288 | 11.54371 | 38292 ft | 441 kts | 358° |
| 2026-04-26 16:38 | 53.05379 | 11.54896 | 38287 ft | 443 kts | 1° |
| 2026-04-26 16:38 | 53.11525 | 11.56244 | 38295 ft | 444 kts | 3° |
| 2026-04-26 16:39 | 53.17632 | 11.57557 | 38300 ft | 444 kts | 2° |
| 2026-04-26 16:39 | 53.23761 | 11.58825 | 38295 ft | 443 kts | 3° |
| 2026-04-26 16:40 | 53.29787 | 11.61210 | 38302 ft | 448 kts | 13° |
| 2026-04-26 16:40 | 53.35727 | 11.64350 | 38291 ft | 447 kts | 12° |
| 2026-04-26 16:41 | 53.41670 | 11.67329 | 38293 ft | 445 kts | 12° |
| 2026-04-26 16:41 | 53.47605 | 11.70281 | 38299 ft | 445 kts | 12° |
| 2026-04-26 16:42 | 53.53531 | 11.73248 | 38295 ft | 444 kts | 12° |
| 2026-04-26 16:42 | 53.59452 | 11.76224 | 38299 ft | 444 kts | 12° |
| 2026-04-26 16:43 | 53.65364 | 11.79203 | 38295 ft | 443 kts | 12° |
| 2026-04-26 16:43 | 53.71276 | 11.82189 | 38294 ft | 444 kts | 12° |
| 2026-04-26 16:44 | 53.77131 | 11.85158 | 38282 ft | 436 kts | 12° |
| 2026-04-26 16:44 | 53.79985 | 11.86616 | 38275 ft | 421 kts | 11° |
| 2026-04-26 16:44 | 53.82747 | 11.88029 | 38272 ft | 408 kts | 11° |
| 2026-04-26 16:45 | 53.85415 | 11.89393 | 38279 ft | 394 kts | 11° |
| 2026-04-26 16:45 | 53.88003 | 11.90715 | 38283 ft | 385 kts | 11° |
| 2026-04-26 16:45 | 53.93190 | 11.93346 | 38311 ft | 394 kts | 11° |
| 2026-04-26 16:46 | 53.95824 | 11.94686 | 38152 ft | 396 kts | 11° |
| 2026-04-26 16:46 | 53.98457 | 11.96033 | 37606 ft | 396 kts | 11° |
| 2026-04-26 16:46 | 54.01130 | 11.97401 | 36612 ft | 408 kts | 11° |
| 2026-04-26 16:46 | 54.03898 | 11.98815 | 35480 ft | 423 kts | 11° |
| 2026-04-26 16:47 | 54.06769 | 12.00288 | 34421 ft | 437 kts | 11° |
| 2026-04-26 16:47 | 54.09711 | 12.01806 | 33333 ft | 447 kts | 11° |
| 2026-04-26 16:47 | 54.12706 | 12.03358 | 32349 ft | 453 kts | 12° |
| 2026-04-26 16:47 | 54.15733 | 12.04931 | 31496 ft | 456 kts | 12° |
| 2026-04-26 16:48 | 54.18770 | 12.06508 | 30813 ft | 454 kts | 12° |
| 2026-04-26 16:48 | 54.21769 | 12.08067 | 30333 ft | 448 kts | 12° |
| 2026-04-26 16:48 | 54.24733 | 12.09611 | 29776 ft | 442 kts | 12° |
| 2026-04-26 16:48 | 54.27655 | 12.11134 | 29147 ft | 437 kts | 12° |
| 2026-04-26 16:49 | 54.30549 | 12.12641 | 28495 ft | 433 kts | 12° |
| 2026-04-26 16:49 | 54.33424 | 12.14139 | 27867 ft | 430 kts | 12° |
| 2026-04-26 16:49 | 54.36270 | 12.15625 | 27272 ft | 426 kts | 11° |
| 2026-04-26 16:49 | 54.39092 | 12.17100 | 26689 ft | 422 kts | 11° |
| 2026-04-26 16:50 | 54.41884 | 12.18563 | 26156 ft | 418 kts | 11° |
| 2026-04-26 16:50 | 54.44656 | 12.20017 | 25612 ft | 414 kts | 11° |
| 2026-04-26 16:50 | 54.47397 | 12.21456 | 25057 ft | 411 kts | 11° |
| 2026-04-26 16:50 | 54.50122 | 12.22889 | 24503 ft | 408 kts | 11° |
| 2026-04-26 16:51 | 54.52829 | 12.24314 | 23969 ft | 405 kts | 11° |
| 2026-04-26 16:51 | 54.55516 | 12.25730 | 23372 ft | 402 kts | 12° |
| 2026-04-26 16:51 | 54.58176 | 12.27136 | 22804 ft | 398 kts | 12° |
| 2026-04-26 16:51 | 54.60826 | 12.28399 | 22250 ft | 391 kts | 6° |
| 2026-04-26 16:52 | 54.63452 | 12.28923 | 21710 ft | 382 kts | 358° |
| 2026-04-26 16:52 | 54.64345 | 12.28994 | 21551 ft | 380 kts | 358° |
| 2026-04-26 16:52 | 54.68699 | 12.29286 | 20680 ft | 374 kts | 358° |
| 2026-04-26 16:52 | 54.71290 | 12.29463 | 20156 ft | 371 kts | 358° |
| 2026-04-26 16:53 | 54.73858 | 12.29653 | 19646 ft | 368 kts | 358° |
| 2026-04-26 16:53 | 54.76405 | 12.29853 | 19147 ft | 365 kts | 358° |
| 2026-04-26 16:53 | 54.78920 | 12.30071 | 18850 ft | 358 kts | 359° |
| 2026-04-26 16:53 | 54.81382 | 12.30305 | 18609 ft | 351 kts | 359° |
| 2026-04-26 16:54 | 54.83825 | 12.30539 | 18353 ft | 354 kts | 359° |
| 2026-04-26 16:54 | 54.86267 | 12.30773 | 17829 ft | 348 kts | 359° |
| 2026-04-26 16:54 | 54.88684 | 12.31004 | 17035 ft | 347 kts | 359° |
| 2026-04-26 16:54 | 54.91069 | 12.31232 | 16504 ft | 338 kts | 359° |
| 2026-04-26 16:55 | 54.93353 | 12.31455 | 16227 ft | 321 kts | 359° |
| 2026-04-26 16:55 | 54.95591 | 12.31668 | 15251 ft | 327 kts | 359° |
| 2026-04-26 16:55 | 54.97893 | 12.31878 | 14189 ft | 335 kts | 359° |
| 2026-04-26 16:55 | 55.00234 | 12.32095 | 13236 ft | 336 kts | 359° |
| 2026-04-26 16:56 | 55.04851 | 12.32534 | 11695 ft | 328 kts | 360° |
| 2026-04-26 16:56 | 55.07118 | 12.32750 | 10934 ft | 325 kts | 360° |
| 2026-04-26 16:56 | 55.09366 | 12.32964 | 10186 ft | 322 kts | 0° |
| 2026-04-26 16:57 | 55.11592 | 12.33176 | 9384 ft | 319 kts | 0° |
| 2026-04-26 16:57 | 55.13802 | 12.33387 | 8593 ft | 316 kts | 0° |
| 2026-04-26 16:57 | 55.17438 | 12.33734 | 7314 ft | 316 kts | 0° |
| 2026-04-26 16:58 | 55.19636 | 12.33943 | 6824 ft | 315 kts | 0° |
| 2026-04-26 16:58 | 55.21082 | 12.34081 | 6551 ft | 312 kts | 0° |
| 2026-04-26 16:58 | 55.26122 | 12.34564 | 5366 ft | 310 kts | 1° |
| 2026-04-26 16:59 | 55.28274 | 12.34770 | 4871 ft | 309 kts | 1° |
| 2026-04-26 16:59 | 55.32483 | 12.35177 | 4223 ft | 287 kts | 1° |
| 2026-04-26 17:00 | 55.36220 | 12.35540 | 3948 ft | 255 kts | 1° |
| 2026-04-26 17:00 | 55.39629 | 12.35869 | 3797 ft | 236 kts | 0° |
| 2026-04-26 17:00 | 55.41228 | 12.36165 | 3723 ft | 229 kts | 12° |
| 2026-04-26 17:01 | 55.42714 | 12.37009 | 3669 ft | 220 kts | 15° |
| 2026-04-26 17:01 | 55.44143 | 12.37836 | 3591 ft | 215 kts | 15° |
| 2026-04-26 17:01 | 55.45479 | 12.39024 | 3497 ft | 217 kts | 34° |
| 2026-04-26 17:01 | 55.46637 | 12.40735 | 3384 ft | 218 kts | 39° |
| 2026-04-26 17:02 | 55.47780 | 12.42546 | 3090 ft | 222 kts | 39° |
| 2026-04-26 17:02 | 55.48927 | 12.44350 | 2809 ft | 218 kts | 39° |
| 2026-04-26 17:02 | 55.50047 | 12.46097 | 2501 ft | 212 kts | 39° |
| 2026-04-26 17:02 | 55.51133 | 12.47784 | 2213 ft | 205 kts | 39° |
| 2026-04-26 17:03 | 55.52182 | 12.49414 | 1935 ft | 197 kts | 39° |
| 2026-04-26 17:03 | 55.53194 | 12.50987 | 1646 ft | 191 kts | 39° |
| 2026-04-26 17:03 | 55.54156 | 12.52482 | 1391 ft | 178 kts | 39° |
| 2026-04-26 17:03 | 55.55046 | 12.53866 | 1173 ft | 165 kts | 38° |
| 2026-04-26 17:04 | 55.55899 | 12.55188 | 932 ft | 161 kts | 38° |
| 2026-04-26 17:04 | 55.56720 | 12.56461 | 692 ft | 158 kts | 39° |
| 2026-04-26 17:04 | 55.57546 | 12.57755 | 488 ft | 156 kts | 39° |
| 2026-04-26 17:04 | 55.58338 | 12.58985 | 303 ft | 151 kts | 38° |
| 2026-04-26 17:05 | 55.59135 | 12.60219 | 102 ft | 152 kts | 39° |
| 2026-04-26 17:05 | 55.59903 | 12.61400 | 23 ft | 134 kts | 41° |
| 2026-04-26 17:05 | 55.60513 | 12.62348 | 25 ft | 100 kts | 41° |
| 2026-04-26 17:05 | 55.60994 | 12.63093 | 28 ft | 85 kts | 41° |
| 2026-04-26 17:06 | 55.61369 | 12.63672 | 28 ft | 55 kts | 41° |
| 2026-04-26 17:06 | 55.61579 | 12.63999 | 27 ft | 23 kts | 41° |
| 2026-04-26 17:06 | 55.61709 | 12.64090 | 28 ft | 21 kts | 354° |
| 2026-04-26 17:06 | 55.61849 | 12.64070 | 23 ft | 20 kts | 360° |
| 2026-04-26 17:07 | 55.61975 | 12.64157 | 25 ft | 19 kts | 25° |
| 2026-04-26 17:07 | 55.62094 | 12.64256 | 23 ft | 19 kts | 26° |
| 2026-04-26 17:07 | 55.62204 | 12.64348 | 20 ft | 17 kts | 25° |
| 2026-04-26 17:07 | 55.62315 | 12.64412 | 22 ft | 14 kts | 15° |
| 2026-04-26 17:08 | 55.62410 | 12.64458 | 23 ft | 13 kts | 14° |
| 2026-04-26 17:08 | 55.62480 | 12.64482 | 23 ft | 8 kts | 357° |
| 2026-04-26 17:08 | 55.62526 | 12.64491 | 23 ft | 7 kts | 15° |
| 2026-04-26 17:08 | 55.62556 | 12.64506 | 23 ft | 2 kts | 15° |
| 2026-04-26 17:09 | 55.62561 | 12.64508 | 23 ft | 0 kts | 15° |